createdAt,value
2019-05-23T00:02:33.276Z,17.35
2019-05-23T00:05:13.751Z,15.30
2019-05-23T00:07:45.547Z,15.50
2019-05-23T00:10:36.715Z,14.95
2019-05-23T00:13:09.453Z,16.05
2019-05-23T00:15:42.563Z,15.75
2019-05-23T00:18:15.558Z,15.60
2019-05-23T00:20:47.570Z,14.25
2019-05-23T00:23:18.954Z,13.72
2019-05-23T00:25:51.427Z,14.68
2019-05-23T00:28:23.122Z,13.68
2019-05-23T00:30:59.354Z,13.85
2019-05-23T00:33:32.041Z,14.45
2019-05-23T00:36:03.399Z,12.93
2019-05-23T00:38:36.971Z,12.60
2019-05-23T00:41:10.183Z,12.60
2019-05-23T00:43:41.516Z,13.85
2019-05-23T00:46:15.139Z,13.60
2019-05-23T00:48:50.268Z,14.00
2019-05-23T00:51:23.595Z,15.63
2019-05-23T00:53:54.997Z,16.27
2019-05-23T00:56:26.463Z,16.40
2019-05-23T00:58:59.267Z,16.87
2019-05-23T01:01:32.105Z,17.48
2019-05-23T01:04:04.843Z,16.27
2019-05-23T01:06:40.485Z,16.57
2019-05-23T01:09:12.149Z,16.23
2019-05-23T01:11:44.711Z,16.12
2019-05-23T01:14:17.219Z,16.60
2019-05-23T01:16:48.586Z,13.88
2019-05-23T01:19:21.679Z,14.05
2019-05-23T01:22:04.093Z,14.85
2019-05-23T01:24:36.926Z,14.87
2019-05-23T01:27:09.136Z,13.85
2019-05-23T01:29:42.668Z,14.23
2019-05-23T01:32:19.678Z,13.95
2019-05-23T01:34:52.142Z,14.28
2019-05-23T01:37:23.229Z,12.98
2019-05-23T01:39:54.344Z,12.25
2019-05-23T01:42:26.112Z,13.20
2019-05-23T01:44:59.639Z,12.60
2019-05-23T01:47:31.041Z,12.55
2019-05-23T01:50:03.025Z,12.43
2019-05-23T01:52:36.504Z,13.30
2019-05-23T01:55:08.203Z,12.55
2019-05-23T01:57:41.585Z,11.78
2019-05-23T02:00:14.504Z,13.25
2019-05-23T02:02:46.285Z,10.00
2019-05-23T02:05:18.711Z,10.75
2019-05-23T02:07:51.571Z,11.15
2019-05-23T02:10:23.373Z,9.95
2019-05-23T02:12:54.491Z,10.18
2019-05-23T02:15:26.252Z,10.15
2019-05-23T02:17:59.635Z,10.08
2019-05-23T02:20:35.460Z,8.80
2019-05-23T02:23:06.279Z,9.88
2019-05-23T02:25:38.495Z,9.90
2019-05-23T02:28:11.059Z,11.05
2019-05-23T02:30:45.157Z,10.40
2019-05-23T02:33:16.349Z,11.08
2019-05-23T02:35:47.686Z,10.45
2019-05-23T02:38:27.531Z,9.33
2019-05-23T02:41:04.789Z,9.95
2019-05-23T02:43:38.983Z,10.08
2019-05-23T02:46:24.222Z,10.55
2019-05-23T02:48:57.418Z,10.58
2019-05-23T02:51:32.275Z,11.65
2019-05-23T02:54:05.619Z,10.78
2019-05-23T02:56:42.667Z,10.90
2019-05-23T02:59:46.793Z,11.88
2019-05-23T03:02:53.804Z,10.20
2019-05-23T03:05:26.506Z,10.25
2019-05-23T03:08:01.114Z,10.45
2019-05-23T03:10:50.337Z,10.85
2019-05-23T03:13:32.848Z,11.53
2019-05-23T03:16:06.070Z,10.63
2019-05-23T03:18:44.268Z,10.10
2019-05-23T03:21:20.724Z,12.07
2019-05-23T03:23:52.135Z,11.30
2019-05-23T03:26:36.365Z,11.15
2019-05-23T03:29:10.894Z,11.80
2019-05-23T03:31:46.236Z,11.65
2019-05-23T03:34:23.069Z,11.12
2019-05-23T03:36:55.549Z,10.58
2019-05-23T03:39:30.421Z,12.20
2019-05-23T03:42:03.231Z,11.15
2019-05-23T03:44:34.845Z,11.68
2019-05-23T03:47:10.288Z,10.90
2019-05-23T03:49:42.647Z,11.75
2019-05-23T03:52:15.845Z,11.33
2019-05-23T03:54:48.957Z,10.13
2019-05-23T03:57:25.368Z,11.65
2019-05-23T03:59:59.539Z,11.33
2019-05-23T04:02:31.880Z,12.20
2019-05-23T04:05:04.694Z,12.05
2019-05-23T04:07:40.263Z,11.85
2019-05-23T04:10:14.602Z,11.80
2019-05-23T04:12:46.003Z,12.37
2019-05-23T04:15:18.120Z,11.60
2019-05-23T04:17:50.811Z,12.68
2019-05-23T04:20:23.479Z,12.70
2019-05-23T04:22:54.841Z,13.38
2019-05-23T04:25:29.102Z,12.85
2019-05-23T04:28:11.842Z,12.35
2019-05-23T04:30:39.389Z,13.05
2019-05-23T04:33:16.831Z,11.90
2019-05-23T04:35:48.829Z,11.95
2019-05-23T04:38:21.513Z,11.75
2019-05-23T04:40:53.862Z,11.45
2019-05-23T04:43:32.395Z,11.60
2019-05-23T04:45:58.827Z,10.53
2019-05-23T04:48:30.157Z,11.30
2019-05-23T04:51:01.699Z,11.22
2019-05-23T04:53:34.155Z,10.60
2019-05-23T04:56:07.292Z,10.60
2019-05-23T04:58:38.940Z,10.38
2019-05-23T05:01:12.712Z,9.48
2019-05-23T05:03:46.435Z,9.90
2019-05-23T05:06:20.780Z,8.70
2019-05-23T05:08:52.548Z,9.25
2019-05-23T05:11:24.550Z,8.15
2019-05-23T05:13:55.795Z,8.00
2019-05-23T05:16:30.288Z,7.97
2019-05-23T05:19:05.507Z,7.45
2019-05-23T05:21:36.496Z,7.45
2019-05-23T05:24:07.547Z,7.50
2019-05-23T05:26:40.491Z,7.35
2019-05-23T05:29:12.285Z,6.90
2019-05-23T05:31:46.292Z,6.83
2019-05-23T05:34:23.136Z,6.28
2019-05-23T05:36:57.920Z,6.42
2019-05-23T05:39:32.532Z,6.00
2019-05-23T05:42:09.428Z,6.03
2019-05-23T05:47:17.088Z,6.03
2019-05-23T05:49:50.557Z,5.20
2019-05-23T05:52:21.900Z,6.70
2019-05-23T05:55:01.057Z,5.10
2019-05-23T05:57:33.590Z,5.67
2019-05-23T06:00:13.013Z,5.90
2019-05-23T06:03:02.617Z,5.72
2019-05-23T06:05:20.669Z,5.30
2019-05-23T06:07:59.793Z,6.72
2019-05-23T06:10:32.700Z,5.85
2019-05-23T06:13:05.093Z,5.72
2019-05-23T06:15:36.430Z,5.87
2019-05-23T06:18:07.519Z,6.75
2019-05-23T06:20:41.143Z,5.42
2019-05-23T06:23:12.996Z,6.03
2019-05-23T06:25:46.552Z,6.40
2019-05-23T06:28:21.406Z,6.78
2019-05-23T06:30:52.663Z,6.45
2019-05-23T06:33:26.290Z,6.45
2019-05-23T06:35:57.865Z,5.95
2019-05-23T06:38:30.385Z,6.80
2019-05-23T06:41:05.069Z,6.33
2019-05-23T06:43:39.647Z,6.17
2019-05-23T06:46:11.240Z,6.65
2019-05-23T06:48:45.733Z,6.33
2019-05-23T06:51:15.728Z,6.90
2019-05-23T06:53:47.781Z,6.47
2019-05-23T06:56:19.943Z,6.03
2019-05-23T06:58:51.075Z,6.33
2019-05-23T07:01:23.933Z,6.45
2019-05-23T07:03:56.455Z,7.00
2019-05-23T07:06:27.821Z,6.17
2019-05-23T07:08:59.349Z,6.40
2019-05-23T07:11:30.562Z,6.58
2019-05-23T07:14:01.679Z,6.50
2019-05-23T07:16:32.743Z,6.67
2019-05-23T07:19:03.801Z,5.92
2019-05-23T07:21:36.671Z,6.17
2019-05-23T07:24:09.347Z,6.03
2019-05-23T07:26:40.805Z,6.40
2019-05-23T07:29:13.869Z,5.47
2019-05-23T07:31:45.266Z,5.78
2019-05-23T07:34:16.815Z,5.50
2019-05-23T07:36:47.890Z,5.97
2019-05-23T07:39:19.586Z,5.12
2019-05-23T07:41:51.688Z,5.42
2019-05-23T07:44:22.797Z,5.03
2019-05-23T07:46:54.209Z,4.45
2019-05-23T07:49:25.477Z,4.90
2019-05-23T07:51:56.582Z,10.85
2019-05-23T07:54:32.255Z,4.60
2019-05-23T07:57:05.689Z,4.42
2019-05-23T07:59:39.209Z,4.50
2019-05-23T08:02:17.341Z,5.60
2019-05-23T08:04:50.429Z,12.47
2019-05-23T08:07:21.750Z,9.75
2019-05-23T08:09:52.815Z,5.30
2019-05-23T08:12:23.901Z,3.85
2019-05-23T08:14:58.833Z,3.98
2019-05-23T08:17:32.294Z,4.58
2019-05-23T08:20:03.582Z,4.10
2019-05-23T08:22:34.906Z,4.80
2019-05-23T08:25:07.265Z,3.75
2019-05-23T08:27:38.453Z,3.90
2019-05-23T08:30:12.971Z,4.08
2019-05-23T08:32:44.717Z,3.25
2019-05-23T08:35:18.089Z,4.05
2019-05-23T08:37:49.464Z,4.20
2019-05-23T08:40:23.694Z,4.17
2019-05-23T08:42:56.490Z,4.15
2019-05-23T08:45:28.944Z,3.70
2019-05-23T08:48:00.358Z,4.08
2019-05-23T08:50:33.336Z,3.75
2019-05-23T08:53:04.651Z,4.20
2019-05-23T08:55:37.480Z,3.77
2019-05-23T08:58:11.721Z,3.45
2019-05-23T09:00:45.669Z,3.35
2019-05-23T09:03:21.628Z,3.30
2019-05-23T09:05:54.739Z,4.15
2019-05-23T09:08:27.777Z,3.75
2019-05-23T09:10:59.040Z,4.10
2019-05-23T09:13:31.165Z,3.87
2019-05-23T09:16:02.973Z,4.00
2019-05-23T09:18:34.211Z,4.30
2019-05-23T09:21:07.401Z,3.90
2019-05-23T09:23:40.568Z,3.72
2019-05-23T09:26:12.050Z,3.72
2019-05-23T09:28:46.739Z,3.92
2019-05-23T09:31:19.121Z,3.95
2019-05-23T09:33:53.112Z,4.40
2019-05-23T09:36:24.912Z,5.03
2019-05-23T09:38:56.224Z,4.85
2019-05-23T09:41:29.219Z,4.15
2019-05-23T09:44:00.370Z,3.67
2019-05-23T09:46:32.525Z,3.60
2019-05-23T09:49:04.074Z,3.92
2019-05-23T09:51:35.294Z,4.08
2019-05-23T09:54:06.416Z,4.72
2019-05-23T09:56:39.816Z,4.35
2019-05-23T09:59:12.751Z,4.28
2019-05-23T10:01:44.814Z,3.75
2019-05-23T10:04:16.063Z,6.78
2019-05-23T10:06:47.189Z,5.25
2019-05-23T10:09:20.301Z,3.85
2019-05-23T10:11:52.144Z,3.95
2019-05-23T10:14:27.773Z,5.58
2019-05-23T10:16:59.990Z,4.92
2019-05-23T10:19:34.303Z,3.37
2019-05-23T10:22:07.190Z,4.37
2019-05-23T10:24:38.367Z,4.78
2019-05-23T10:27:11.337Z,5.15
2019-05-23T10:29:44.221Z,3.83
2019-05-23T10:32:19.365Z,3.67
2019-05-23T10:35:00.179Z,4.62
2019-05-23T10:37:35.107Z,8.48
2019-05-23T10:40:14.656Z,5.95
2019-05-23T10:42:50.929Z,4.05
2019-05-23T10:45:26.086Z,3.72
2019-05-23T10:47:59.215Z,4.20
2019-05-23T10:50:44.800Z,4.40
2019-05-23T10:53:11.723Z,3.98
2019-05-23T10:55:43.081Z,5.47
2019-05-23T10:58:16.725Z,4.60
2019-05-23T11:00:50.938Z,4.22
2019-05-23T11:03:28.106Z,4.17
2019-05-23T11:06:13.335Z,4.00
2019-05-23T11:08:38.330Z,3.95
2019-05-23T11:11:20.248Z,4.22
2019-05-23T11:13:51.677Z,4.30
2019-05-23T11:16:32.101Z,4.08
2019-05-23T11:19:02.860Z,4.67
2019-05-23T11:27:24.122Z,4.17
2019-05-23T11:35:47.250Z,4.80
2019-05-23T11:41:54.287Z,4.33
2019-05-23T11:50:09.650Z,6.50
2019-05-23T11:55:51.155Z,4.75
2019-05-23T12:07:21.022Z,4.53
2019-05-23T12:23:50.245Z,4.55
2019-05-23T12:35:09.600Z,4.60
2019-05-23T12:35:49.175Z,3.98
2019-05-23T12:43:15.265Z,3.58
2019-05-23T13:03:22.653Z,4.30
2019-05-23T13:05:56.581Z,5.12
2019-05-23T13:11:08.394Z,5.30
2019-05-23T13:15:32.398Z,5.08
2019-05-23T13:17:19.301Z,4.30
2019-05-23T13:19:46.314Z,4.42
2019-05-23T13:26:40.911Z,4.92
2019-05-23T13:49:14.398Z,4.40
2019-05-23T13:50:21.602Z,4.03
2019-05-23T14:08:13.112Z,4.67
2019-05-23T14:09:22.426Z,4.25
2019-05-23T14:21:30.765Z,5.10
2019-05-23T14:29:25.049Z,2.98
2019-05-23T14:32:00.812Z,5.83
2019-05-23T14:34:13.312Z,3.52
2019-05-23T14:36:46.278Z,3.50
2019-05-23T14:42:22.510Z,3.30
2019-05-23T14:44:53.622Z,5.10
2019-05-23T14:47:35.041Z,4.15
2019-05-23T14:53:08.964Z,3.30
2019-05-23T14:55:47.451Z,3.33
2019-05-23T14:58:26.925Z,4.00
2019-05-23T15:01:07.805Z,3.27
2019-05-23T15:03:40.677Z,3.95
2019-05-23T17:27:43.568Z,2.40
2019-05-23T17:34:39.498Z,2.95
2019-05-23T18:08:09.609Z,2.80
2019-05-23T18:14:24.154Z,4.03
2019-05-23T18:16:57.881Z,3.22
2019-05-23T18:22:24.260Z,3.67
2019-05-23T18:25:01.936Z,2.98
2019-05-23T18:27:50.705Z,3.00
2019-05-23T18:30:52.250Z,3.47
2019-05-23T18:33:36.329Z,2.90
2019-05-23T18:36:16.259Z,4.00
2019-05-23T18:39:16.914Z,4.37
2019-05-23T18:41:30.217Z,4.08
2019-05-23T18:44:12.448Z,2.95
2019-05-23T18:46:45.819Z,3.85
2019-05-23T18:49:26.469Z,3.72
2019-05-23T18:52:03.886Z,3.67
2019-05-23T18:57:40.272Z,4.42
2019-05-23T19:00:18.011Z,3.52
2019-05-23T19:18:00.546Z,4.10
2019-05-23T19:20:33.655Z,3.62
2019-05-23T19:26:48.859Z,3.98
2019-05-23T19:29:27.655Z,5.33
2019-05-23T19:31:59.890Z,5.75
2019-05-23T19:34:34.708Z,4.85
2019-05-23T19:37:08.099Z,4.20
2019-05-23T19:43:15.216Z,3.83
2019-05-23T19:45:49.203Z,4.10
2019-05-23T19:48:22.335Z,4.12
2019-05-23T19:50:55.206Z,4.80
2019-05-23T19:53:28.685Z,4.85
2019-05-23T19:56:00.275Z,4.67
2019-05-23T19:58:31.866Z,4.85
2019-05-23T20:01:04.058Z,5.33
2019-05-23T20:03:35.901Z,5.70
2019-05-23T20:06:09.879Z,5.28
2019-05-23T20:08:46.986Z,5.92
2019-05-23T20:11:22.168Z,5.50
2019-05-23T20:13:54.237Z,5.95
2019-05-23T20:16:27.291Z,5.75
2019-05-23T20:19:00.702Z,6.60
2019-05-23T20:21:45.011Z,6.15
2019-05-23T20:24:18.944Z,5.87
2019-05-23T20:26:53.510Z,6.60
2019-05-23T20:29:24.949Z,6.75
2019-05-23T20:31:58.074Z,6.90
2019-05-23T20:34:32.339Z,7.20
2019-05-23T20:37:08.164Z,7.25
2019-05-23T20:39:40.199Z,7.55
2019-05-23T20:42:12.355Z,8.30
2019-05-23T20:44:46.812Z,7.83
2019-05-23T20:47:21.208Z,8.88
2019-05-23T20:49:54.374Z,8.18
2019-05-23T20:52:32.112Z,7.85
2019-05-23T20:55:08.793Z,7.67
2019-05-23T20:57:45.032Z,8.60
2019-05-23T21:00:26.425Z,8.05
2019-05-23T21:03:02.871Z,7.87
2019-05-23T21:05:35.232Z,8.85
2019-05-23T21:08:08.209Z,8.60
2019-05-23T21:10:45.229Z,7.72
2019-05-23T21:13:21.485Z,8.35
2019-05-23T21:15:53.407Z,8.83
2019-05-23T21:19:17.993Z,8.53
2019-05-23T21:21:14.892Z,8.33
2019-05-23T21:23:57.148Z,10.08
2019-05-23T21:26:31.375Z,10.32
2019-05-23T21:29:04.631Z,10.25
2019-05-23T21:31:36.245Z,10.13
2019-05-23T21:34:07.498Z,9.70
2019-05-23T21:36:38.692Z,9.48
2019-05-23T21:39:11.533Z,10.38
2019-05-23T21:41:42.857Z,9.98
2019-05-23T21:44:13.975Z,8.73
2019-05-23T21:46:45.406Z,8.35
2019-05-23T21:52:15.911Z,9.75
2019-05-23T21:55:26.668Z,8.58
2019-05-23T21:57:28.504Z,8.75
2019-05-23T22:00:01.203Z,8.80
2019-05-23T22:02:33.967Z,8.15
2019-05-23T22:05:08.984Z,8.33
2019-05-23T22:07:41.682Z,8.53
2019-05-23T22:10:14.112Z,8.60
2019-05-23T22:12:46.473Z,8.30
2019-05-23T22:15:22.329Z,8.60
2019-05-23T22:17:53.495Z,8.50
2019-05-23T22:20:24.683Z,8.03
2019-05-23T22:22:57.831Z,9.30
2019-05-23T22:25:34.296Z,8.60
2019-05-23T22:28:11.692Z,8.83
2019-05-23T22:30:44.343Z,8.40
2019-05-23T22:33:18.531Z,8.65
2019-05-23T22:35:52.375Z,8.55
2019-05-23T22:38:27.902Z,8.50
2019-05-23T22:41:00.875Z,9.33
2019-05-23T22:43:32.078Z,8.23
2019-05-23T22:46:06.350Z,8.70
2019-05-23T22:48:38.475Z,8.03
2019-05-23T22:51:09.727Z,8.05
2019-05-23T22:53:43.439Z,8.30
2019-05-23T22:56:15.532Z,8.18
2019-05-23T22:58:48.904Z,7.92
2019-05-23T23:01:27.572Z,8.88
2019-05-23T23:03:57.944Z,7.50
2019-05-23T23:06:31.662Z,7.75
2019-05-23T23:09:06.547Z,8.68
2019-05-23T23:11:38.716Z,7.37
2019-05-23T23:14:11.687Z,8.88
2019-05-23T23:16:53.553Z,8.25
2019-05-23T23:19:31.595Z,7.78
2019-05-23T23:22:04.396Z,8.18
2019-05-23T23:24:36.675Z,7.92
2019-05-23T23:27:09.148Z,7.90
2019-05-23T23:29:41.865Z,8.93
2019-05-23T23:32:13.062Z,7.78
2019-05-23T23:34:44.205Z,8.10
2019-05-23T23:37:15.296Z,8.70
2019-05-23T23:39:46.600Z,8.30
2019-05-23T23:42:19.336Z,8.43
2019-05-23T23:45:17.799Z,8.05
2019-05-23T23:47:46.147Z,8.28
2019-05-23T23:50:36.563Z,7.93
2019-05-23T23:53:25.819Z,7.97
2019-05-23T23:56:17.756Z,8.08
2019-05-23T23:58:48.351Z,7.97
